createdAt,value
2022-08-17T00:01:01.661Z,67.27
2022-08-17T00:03:05.794Z,67.65
2022-08-17T00:04:39.331Z,67.69
2022-08-17T00:06:15.017Z,67.46
2022-08-17T00:07:51.957Z,67.66
2022-08-17T00:09:25.159Z,67.47
2022-08-17T00:10:59.638Z,67.44
2022-08-17T00:12:42.595Z,67.38
2022-08-17T00:14:25.055Z,67.29
2022-08-17T00:16:03.083Z,67.35
2022-08-17T00:17:36.843Z,67.20
2022-08-17T00:19:11.424Z,67.15
2022-08-17T00:20:45.097Z,67.12
2022-08-17T00:22:34.233Z,67.14
2022-08-17T00:24:08.754Z,67.15
2022-08-17T00:25:43.998Z,66.99
2022-08-17T00:27:16.883Z,67.05
2022-08-17T00:29:09.086Z,67.12
2022-08-17T00:30:51.104Z,67.24
2022-08-17T00:33:15.123Z,67.34
2022-08-17T00:34:20.599Z,67.53
2022-08-17T00:35:54.273Z,67.66
2022-08-17T00:37:30.473Z,67.74
2022-08-17T00:39:04.750Z,68.02
2022-08-17T00:40:46.069Z,68.07
2022-08-17T00:42:21.171Z,68.06
2022-08-17T00:43:55.712Z,68.14
2022-08-17T00:45:29.056Z,68.26
2022-08-17T00:47:02.248Z,68.32
2022-08-17T00:48:36.137Z,68.35
2022-08-17T00:50:13.325Z,68.32
2022-08-17T00:52:02.261Z,68.33
2022-08-17T00:53:45.953Z,68.46
2022-08-17T00:55:19.463Z,68.54
2022-08-17T00:56:55.586Z,68.58
2022-08-17T00:58:35.970Z,68.78
2022-08-17T01:00:13.188Z,68.85
2022-08-17T01:01:48.586Z,68.85
2022-08-17T01:03:25.819Z,68.89
2022-08-17T01:05:01.530Z,68.86
2022-08-17T01:06:36.085Z,69.10
2022-08-17T01:08:16.298Z,69.12
2022-08-17T01:09:49.902Z,68.98
2022-08-17T01:11:23.599Z,68.72
2022-08-17T01:12:57.391Z,68.49
2022-08-17T01:14:31.007Z,68.27
2022-08-17T01:16:06.794Z,68.26
2022-08-17T01:17:41.094Z,68.20
2022-08-17T01:19:25.912Z,68.48
2022-08-17T01:21:03.912Z,68.12
2022-08-17T01:22:37.407Z,67.79
2022-08-17T01:24:10.772Z,66.97
2022-08-17T01:25:44.782Z,65.75
2022-08-17T01:27:22.404Z,64.13
2022-08-17T01:28:56.032Z,62.46
2022-08-17T01:30:58.701Z,60.91
2022-08-17T01:32:23.121Z,59.85
2022-08-17T01:33:58.941Z,58.55
2022-08-17T01:35:33.872Z,57.78
2022-08-17T01:37:07.735Z,57.28
2022-08-17T01:38:41.281Z,55.72
2022-08-17T01:40:31.886Z,54.65
2022-08-17T01:42:12.433Z,53.82
2022-08-17T01:43:56.483Z,53.05
2022-08-17T01:45:34.034Z,53.26
2022-08-17T01:47:07.155Z,52.95
2022-08-17T01:48:41.041Z,52.23
2022-08-17T01:50:16.607Z,52.88
2022-08-17T01:51:50.339Z,53.92
2022-08-17T01:53:32.987Z,55.60
2022-08-17T01:55:07.839Z,57.13
2022-08-17T01:56:43.417Z,58.25
2022-08-17T01:58:20.809Z,59.22
2022-08-17T01:59:54.452Z,60.45
2022-08-17T02:01:35.121Z,61.28
2022-08-17T02:03:09.395Z,59.80
2022-08-17T02:04:42.773Z,59.87
2022-08-17T02:06:27.933Z,59.44
2022-08-17T02:08:02.259Z,57.89
2022-08-17T02:09:35.831Z,57.02
2022-08-17T02:11:17.261Z,57.81
2022-08-17T02:12:50.981Z,58.74
2022-08-17T02:14:24.788Z,58.88
2022-08-17T02:15:58.606Z,57.97
2022-08-17T02:17:33.617Z,56.16
2022-08-17T02:19:08.737Z,56.39
2022-08-17T02:20:43.287Z,58.07
2022-08-17T02:22:19.150Z,58.80
2022-08-17T02:23:52.651Z,58.35
2022-08-17T02:25:26.122Z,56.10
2022-08-17T02:26:59.504Z,52.75
2022-08-17T02:28:32.966Z,49.44
2022-08-17T02:30:58.942Z,47.04
2022-08-17T02:32:02.269Z,44.31
2022-08-17T02:33:42.009Z,43.26
2022-08-17T02:35:16.677Z,41.83
2022-08-17T02:36:53.754Z,41.02
2022-08-17T02:38:27.338Z,40.54
2022-08-17T02:40:01.045Z,39.58
2022-08-17T02:41:34.651Z,39.14
2022-08-17T02:43:08.858Z,38.69
2022-08-17T02:44:46.873Z,39.72
2022-08-17T02:46:20.225Z,38.98
2022-08-17T02:47:53.630Z,39.63
2022-08-17T02:49:26.493Z,39.79
2022-08-17T02:51:00.770Z,38.72
2022-08-17T02:52:42.387Z,38.45
2022-08-17T02:54:39.322Z,38.11
2022-08-17T02:56:10.502Z,37.19
2022-08-17T02:57:44.228Z,36.95
2022-08-17T02:59:17.505Z,35.85
2022-08-17T03:00:50.808Z,35.99
2022-08-17T03:02:23.673Z,35.04
2022-08-17T03:03:57.567Z,34.38
2022-08-17T03:05:32.627Z,33.97
2022-08-17T03:07:06.241Z,33.41
2022-08-17T03:08:42.819Z,32.68
2022-08-17T03:10:17.210Z,32.53
2022-08-17T03:11:53.108Z,31.99
2022-08-17T03:13:29.040Z,31.98
2022-08-17T03:15:09.150Z,31.91
2022-08-17T03:16:42.802Z,32.03
2022-08-17T03:18:25.802Z,32.35
2022-08-17T03:19:59.791Z,32.05
2022-08-17T03:21:33.025Z,30.89
2022-08-17T03:23:06.788Z,30.79
2022-08-17T03:24:42.862Z,30.83
2022-08-17T03:26:16.570Z,30.67
2022-08-17T03:27:51.434Z,31.32
2022-08-17T03:29:28.066Z,31.19
2022-08-17T03:31:01.291Z,31.12
2022-08-17T03:32:42.229Z,31.17
2022-08-17T03:34:16.625Z,32.15
2022-08-17T03:35:49.884Z,31.91
2022-08-17T03:37:23.026Z,32.03
2022-08-17T03:38:56.347Z,32.36
2022-08-17T03:40:55.317Z,31.66
2022-08-17T03:42:32.564Z,30.90
2022-08-17T03:44:06.285Z,30.66
2022-08-17T03:45:58.021Z,30.13
2022-08-17T03:47:49.475Z,30.70
2022-08-17T03:49:40.771Z,31.22
2022-08-17T03:51:38.113Z,30.42
2022-08-17T03:53:35.972Z,30.45
2022-08-17T03:55:35.940Z,30.63
2022-08-17T03:57:11.046Z,29.76
2022-08-17T03:58:44.752Z,29.66
2022-08-17T04:00:18.395Z,29.70
2022-08-17T04:01:53.710Z,28.72
2022-08-17T04:03:27.952Z,28.27
2022-08-17T04:05:01.679Z,28.36
2022-08-17T04:06:35.882Z,27.80
2022-08-17T04:08:12.037Z,27.96
2022-08-17T04:09:45.355Z,28.31
2022-08-17T04:11:18.497Z,28.50
2022-08-17T04:12:55.884Z,28.06
2022-08-17T04:14:31.492Z,27.68
2022-08-17T04:16:04.870Z,27.63
2022-08-17T04:17:38.205Z,27.49
2022-08-17T04:19:11.881Z,27.25
2022-08-17T04:20:46.311Z,27.66
2022-08-17T04:22:30.896Z,27.35
2022-08-17T04:24:09.287Z,27.43
2022-08-17T04:25:46.650Z,27.59
2022-08-17T04:27:20.462Z,27.27
2022-08-17T04:28:53.834Z,27.57
2022-08-17T04:30:29.902Z,27.72
2022-08-17T04:32:03.498Z,27.66
2022-08-17T04:33:38.384Z,27.21
2022-08-17T04:35:11.894Z,27.00
2022-08-17T04:36:50.093Z,27.39
2022-08-17T04:38:25.963Z,28.09
2022-08-17T04:40:19.428Z,28.68
2022-08-17T04:42:12.457Z,28.77
2022-08-17T04:43:47.007Z,28.41
2022-08-17T04:45:20.848Z,28.36
2022-08-17T04:46:56.718Z,28.17
2022-08-17T04:48:37.391Z,28.35
2022-08-17T04:50:11.057Z,26.99
2022-08-17T04:51:55.688Z,26.28
2022-08-17T04:53:30.065Z,26.55
2022-08-17T04:55:04.785Z,26.67
2022-08-17T04:56:39.662Z,27.60
2022-08-17T04:58:13.426Z,27.39
2022-08-17T04:59:49.489Z,27.11
2022-08-17T05:01:24.595Z,26.46
2022-08-17T05:02:58.506Z,27.22
2022-08-17T05:04:34.581Z,26.29
2022-08-17T05:06:09.655Z,26.42
2022-08-17T05:07:43.379Z,27.03
2022-08-17T05:09:17.999Z,26.85
2022-08-17T05:10:51.618Z,26.21
2022-08-17T05:12:27.714Z,26.38
2022-08-17T05:14:01.601Z,26.04
2022-08-17T05:15:35.958Z,26.33
2022-08-17T05:17:11.376Z,26.31
2022-08-17T05:18:45.173Z,26.49
2022-08-17T05:20:18.472Z,26.73
2022-08-17T05:21:55.336Z,26.40
2022-08-17T05:23:42.109Z,26.87
2022-08-17T05:25:16.643Z,26.82
2022-08-17T05:26:50.216Z,26.58
2022-08-17T05:28:29.639Z,26.46
2022-08-17T05:30:03.222Z,26.28
2022-08-17T05:31:36.757Z,26.40
2022-08-17T05:33:20.613Z,25.48
2022-08-17T05:35:00.244Z,25.68
2022-08-17T05:36:41.903Z,26.25
2022-08-17T05:38:18.372Z,25.79
2022-08-17T05:39:52.051Z,26.25
2022-08-17T05:41:25.828Z,26.10
2022-08-17T05:43:13.243Z,25.69
2022-08-17T05:44:46.958Z,25.89
2022-08-17T05:46:20.260Z,25.29
2022-08-17T05:47:53.635Z,26.22
2022-08-17T05:49:28.090Z,25.90
2022-08-17T05:51:09.819Z,25.77
2022-08-17T05:52:47.767Z,25.68
2022-08-17T05:54:24.026Z,25.24
2022-08-17T05:56:04.501Z,25.66
2022-08-17T05:58:00.782Z,25.79
2022-08-17T05:59:36.273Z,26.42
2022-08-17T06:01:18.905Z,26.41
2022-08-17T06:02:52.928Z,26.25
2022-08-17T06:04:32.797Z,26.56
2022-08-17T06:06:12.542Z,26.06
2022-08-17T06:07:50.895Z,26.01
2022-08-17T06:09:34.102Z,25.67
2022-08-17T06:11:14.303Z,25.70
2022-08-17T06:13:00.304Z,25.50
2022-08-17T06:15:02.522Z,24.62
2022-08-17T06:16:38.606Z,24.64
2022-08-17T06:18:15.982Z,23.96
2022-08-17T06:20:00.601Z,23.69
2022-08-17T06:21:36.737Z,24.16
2022-08-17T06:23:14.835Z,24.82
2022-08-17T06:25:14.728Z,24.83
2022-08-17T06:26:48.872Z,24.51
2022-08-17T06:28:28.276Z,25.56
2022-08-17T06:30:15.658Z,24.90
2022-08-17T06:31:49.470Z,25.32
2022-08-17T06:33:26.745Z,25.70
2022-08-17T06:35:03.428Z,26.29
2022-08-17T06:36:55.545Z,26.70
2022-08-17T06:38:47.409Z,27.51
2022-08-17T06:40:39.524Z,26.91
2022-08-17T06:43:02.331Z,26.61
2022-08-17T06:44:10.335Z,27.22
2022-08-17T06:45:49.962Z,27.34
2022-08-17T06:47:28.568Z,27.86
2022-08-17T06:49:08.396Z,27.92
2022-08-17T06:50:48.641Z,27.78
2022-08-17T06:52:55.544Z,27.85
2022-08-17T06:54:47.506Z,28.17
2022-08-17T06:56:57.487Z,28.39
2022-08-17T06:58:32.773Z,28.39
2022-08-17T07:00:17.409Z,28.79
2022-08-17T07:01:52.628Z,28.65
2022-08-17T07:03:26.239Z,28.59
2022-08-17T07:05:02.333Z,28.41
2022-08-17T07:06:45.745Z,28.31
2022-08-17T07:08:36.898Z,28.80
2022-08-17T07:10:12.126Z,29.04
2022-08-17T07:11:54.847Z,29.46
2022-08-17T07:13:31.648Z,28.89
2022-08-17T07:15:10.577Z,28.98
2022-08-17T07:16:48.898Z,28.97
2022-08-17T07:18:24.082Z,29.22
2022-08-17T07:20:04.827Z,28.95
2022-08-17T07:21:41.329Z,28.69
2022-08-17T07:23:27.840Z,28.92
2022-08-17T07:25:03.386Z,28.74
2022-08-17T07:26:37.752Z,29.02
2022-08-17T07:28:14.450Z,28.51
2022-08-17T07:29:51.233Z,29.05
2022-08-17T07:31:26.635Z,28.66
2022-08-17T07:33:08.911Z,28.89
2022-08-17T07:35:11.898Z,28.98
2022-08-17T07:36:45.308Z,28.83
2022-08-17T07:38:25.700Z,28.11
2022-08-17T07:40:16.238Z,28.79
2022-08-17T07:41:53.219Z,28.69
2022-08-17T07:43:45.953Z,28.35
2022-08-17T07:45:37.585Z,28.99
2022-08-17T07:47:34.807Z,29.20
2022-08-17T07:49:11.913Z,29.32
2022-08-17T07:50:50.456Z,28.89
2022-08-17T07:52:50.874Z,28.46
2022-08-17T07:54:24.359Z,28.73
2022-08-17T07:55:58.873Z,28.89
2022-08-17T07:57:36.548Z,29.06
2022-08-17T07:59:16.434Z,29.00
2022-08-17T08:01:16.188Z,29.44
2022-08-17T08:03:02.622Z,29.47
2022-08-17T08:06:50.213Z,29.10
2022-08-17T08:08:31.982Z,29.25
2022-08-17T08:10:36.037Z,29.35
2022-08-17T08:12:24.339Z,29.14
2022-08-17T08:14:33.050Z,29.45
2022-08-17T08:16:18.116Z,29.37
2022-08-17T08:17:57.254Z,29.16
2022-08-17T08:19:32.257Z,28.83
2022-08-17T08:21:09.800Z,29.59
2022-08-17T08:22:53.010Z,29.73
2022-08-17T08:24:41.939Z,29.85
2022-08-17T08:26:26.915Z,29.73
2022-08-17T08:28:07.914Z,29.33
2022-08-17T08:29:40.983Z,28.95
2022-08-17T08:31:43.354Z,29.13
2022-08-17T08:33:30.775Z,28.74
2022-08-17T08:35:07.210Z,28.63
2022-08-17T08:37:02.028Z,28.69
2022-08-17T08:38:40.164Z,28.72
2022-08-17T08:40:13.506Z,28.98
2022-08-17T08:41:59.807Z,28.21
2022-08-17T08:43:36.595Z,28.60
2022-08-17T08:45:17.012Z,27.92
2022-08-17T08:46:53.211Z,28.02
2022-08-17T08:48:58.111Z,28.50
2022-08-17T08:50:40.876Z,28.32
2022-08-17T08:52:31.488Z,27.80
2022-08-17T08:54:13.899Z,26.47
2022-08-17T08:55:54.265Z,27.35
2022-08-17T08:57:34.272Z,28.32
2022-08-17T08:59:26.346Z,28.26
2022-08-17T09:01:01.083Z,28.05
2022-08-17T09:02:37.528Z,28.09
2022-08-17T09:04:29.249Z,27.87
2022-08-17T09:06:37.915Z,27.00
2022-08-17T09:08:16.356Z,26.98
2022-08-17T09:09:56.177Z,27.33
2022-08-17T09:12:02.282Z,27.47
2022-08-17T09:13:45.626Z,27.51
2022-08-17T09:15:34.151Z,27.58
2022-08-17T09:17:19.894Z,27.70
2022-08-17T09:19:04.440Z,27.96
2022-08-17T09:20:49.524Z,28.37
2022-08-17T09:22:31.832Z,28.50
2022-08-17T09:24:13.106Z,28.41
2022-08-17T09:25:50.198Z,28.32
2022-08-17T09:27:39.105Z,28.29
2022-08-17T09:29:14.787Z,28.42
2022-08-17T09:30:50.531Z,28.46
2022-08-17T09:32:38.461Z,28.79
2022-08-17T09:34:17.251Z,29.07
2022-08-17T09:35:57.696Z,29.09
2022-08-17T09:37:50.849Z,29.01
2022-08-17T09:39:47.557Z,29.92
2022-08-17T09:41:25.058Z,29.86
2022-08-17T09:43:09.724Z,29.76
2022-08-17T09:45:01.873Z,29.99
2022-08-17T09:46:38.972Z,30.31
2022-08-17T09:48:12.712Z,30.75
2022-08-17T09:49:51.948Z,30.69
2022-08-17T09:51:31.247Z,30.75
2022-08-17T09:53:04.911Z,30.47
2022-08-17T09:54:40.670Z,30.98
2022-08-17T09:56:17.404Z,30.98
2022-08-17T09:58:05.760Z,30.76
2022-08-17T09:59:42.060Z,30.57
2022-08-17T10:01:24.516Z,30.71
2022-08-17T10:03:17.047Z,30.06
2022-08-17T10:04:55.516Z,30.66
2022-08-17T10:06:31.648Z,31.33
2022-08-17T10:08:09.861Z,31.68
2022-08-17T10:09:50.854Z,31.61
2022-08-17T10:11:52.762Z,31.59
2022-08-17T10:13:36.126Z,31.21
2022-08-17T10:15:15.405Z,31.05
2022-08-17T10:16:56.171Z,31.55
2022-08-17T10:18:41.537Z,31.67
2022-08-17T10:20:30.683Z,31.43
2022-08-17T10:22:35.065Z,31.78
2022-08-17T10:24:29.107Z,31.52
2022-08-17T10:26:14.259Z,31.40
2022-08-17T10:27:52.591Z,31.18
2022-08-17T10:29:29.090Z,31.07
2022-08-17T10:31:33.685Z,31.89
2022-08-17T10:33:03.379Z,31.88
2022-08-17T10:35:04.088Z,31.96
2022-08-17T10:36:47.835Z,31.97
2022-08-17T10:38:38.526Z,32.30
2022-08-17T10:40:26.481Z,32.34
2022-08-17T10:42:04.866Z,32.06
2022-08-17T10:44:35.373Z,31.79
2022-08-17T10:46:27.934Z,31.75
2022-08-17T10:48:05.192Z,31.76
2022-08-17T10:49:44.765Z,31.82
2022-08-17T10:51:38.358Z,31.86
2022-08-17T10:53:46.327Z,31.60
2022-08-17T10:55:21.044Z,31.60
2022-08-17T10:56:56.136Z,31.42
2022-08-17T10:58:38.612Z,31.72
2022-08-17T11:00:31.824Z,31.63
2022-08-17T11:02:05.252Z,31.64
2022-08-17T11:03:41.971Z,31.62
2022-08-17T11:05:37.945Z,31.84
2022-08-17T11:07:16.154Z,31.31
2022-08-17T11:08:53.020Z,31.22
2022-08-17T11:10:29.318Z,31.18
2022-08-17T11:12:11.833Z,31.34
2022-08-17T11:14:05.132Z,30.68
2022-08-17T11:15:58.874Z,29.94
2022-08-17T11:17:50.278Z,30.32
2022-08-17T11:19:29.788Z,30.47
2022-08-17T11:21:23.745Z,30.27
2022-08-17T11:23:06.660Z,30.12
2022-08-17T11:24:43.433Z,30.32
2022-08-17T11:26:27.079Z,30.17
2022-08-17T11:28:20.279Z,30.51
2022-08-17T11:30:02.413Z,30.70
2022-08-17T11:31:46.107Z,30.70
2022-08-17T11:33:38.234Z,30.41
2022-08-17T11:35:26.883Z,30.13
2022-08-17T11:37:01.934Z,29.88
2022-08-17T11:38:58.790Z,30.26
2022-08-17T11:40:39.013Z,30.75
2022-08-17T11:42:26.159Z,31.00
2022-08-17T11:44:16.037Z,30.82
2022-08-17T11:45:52.842Z,30.85
2022-08-17T11:48:23.808Z,31.00
2022-08-17T11:50:12.925Z,31.56
2022-08-17T11:51:52.515Z,31.61
2022-08-17T11:53:39.668Z,31.52
2022-08-17T11:55:36.663Z,31.72
2022-08-17T11:57:21.826Z,31.30
2022-08-17T11:58:55.146Z,31.78
2022-08-17T12:00:49.809Z,31.83
2022-08-17T12:02:32.646Z,31.78
2022-08-17T12:04:28.960Z,31.78
2022-08-17T12:06:21.073Z,32.51
2022-08-17T12:07:54.988Z,32.15
2022-08-17T12:09:31.179Z,32.03
2022-08-17T12:11:07.866Z,32.30
2022-08-17T12:12:44.719Z,32.21
2022-08-17T12:14:45.356Z,32.27
2022-08-17T12:16:24.793Z,32.70
2022-08-17T12:17:59.085Z,32.70
2022-08-17T12:19:34.436Z,32.67
2022-08-17T12:21:18.521Z,32.61
2022-08-17T12:23:01.452Z,32.66
2022-08-17T12:24:42.811Z,32.73
2022-08-17T12:26:24.548Z,32.96
2022-08-17T12:28:06.706Z,33.10
2022-08-17T12:29:43.670Z,33.51
2022-08-17T12:31:22.767Z,33.45
2022-08-17T12:32:57.538Z,33.34
2022-08-17T12:34:36.524Z,33.82
2022-08-17T12:36:15.540Z,34.02
2022-08-17T12:37:53.671Z,33.33
2022-08-17T12:39:28.243Z,33.64
2022-08-17T12:41:28.795Z,33.52
2022-08-17T12:43:03.876Z,33.70
2022-08-17T12:44:46.275Z,33.48
2022-08-17T12:46:24.222Z,33.36
2022-08-17T12:48:08.202Z,33.28
2022-08-17T12:49:42.919Z,33.57
2022-08-17T12:51:17.666Z,34.08
2022-08-17T12:52:56.465Z,34.17
2022-08-17T12:54:47.835Z,34.18
2022-08-17T12:56:21.614Z,34.23
2022-08-17T12:57:59.098Z,33.91
2022-08-17T12:59:34.447Z,34.17
2022-08-17T13:01:14.509Z,34.43
2022-08-17T13:02:58.287Z,34.44
2022-08-17T13:04:32.094Z,34.01
2022-08-17T13:06:07.134Z,33.87
2022-08-17T13:07:47.155Z,33.76
2022-08-17T13:09:22.496Z,34.21
2022-08-17T13:11:16.813Z,33.77
2022-08-17T13:12:51.361Z,33.78
2022-08-17T13:14:28.029Z,34.14
2022-08-17T13:16:01.367Z,34.05
2022-08-17T13:17:36.485Z,33.98
2022-08-17T13:19:14.807Z,33.96
2022-08-17T13:20:55.192Z,33.85
2022-08-17T13:22:29.848Z,33.72
2022-08-17T13:24:05.404Z,33.94
2022-08-17T13:25:38.960Z,33.84
2022-08-17T13:27:15.816Z,34.21
2022-08-17T13:28:50.533Z,34.35
2022-08-17T13:30:28.490Z,34.62
2022-08-17T13:32:05.302Z,35.04
2022-08-17T13:33:46.682Z,35.10
2022-08-17T13:35:39.290Z,35.09
2022-08-17T13:37:29.393Z,35.37
2022-08-17T13:39:17.305Z,35.45
2022-08-17T13:40:53.544Z,35.57
2022-08-17T13:42:53.316Z,35.72
2022-08-17T13:44:35.243Z,35.62
2022-08-17T13:46:11.222Z,35.74
2022-08-17T13:47:44.603Z,35.72
2022-08-17T13:49:20.594Z,35.90
2022-08-17T13:50:56.933Z,36.71
2022-08-17T13:52:41.398Z,36.97
2022-08-17T13:54:22.357Z,37.59
2022-08-17T13:56:37.027Z,37.82
2022-08-17T13:58:06.682Z,38.13
2022-08-17T13:59:54.600Z,37.88
2022-08-17T14:01:36.752Z,38.02
2022-08-17T14:03:10.074Z,37.94
2022-08-17T14:04:44.689Z,38.16
2022-08-17T14:06:53.427Z,38.48
2022-08-17T14:08:12.371Z,39.01
2022-08-17T14:09:49.272Z,39.25
2022-08-17T14:11:24.193Z,39.33
2022-08-17T14:12:57.915Z,39.46
2022-08-17T14:14:33.197Z,39.68
2022-08-17T14:16:06.937Z,40.11
2022-08-17T14:17:42.601Z,39.98
2022-08-17T14:19:16.270Z,40.18
2022-08-17T14:20:54.383Z,40.13
2022-08-17T14:22:32.187Z,40.36
2022-08-17T14:24:06.682Z,40.48
2022-08-17T14:25:40.688Z,40.65
2022-08-17T14:27:13.826Z,40.66
2022-08-17T14:28:54.557Z,40.55
2022-08-17T14:30:30.304Z,40.73
2022-08-17T14:32:15.559Z,40.91
2022-08-17T14:33:49.143Z,41.18
2022-08-17T14:35:24.523Z,41.02
2022-08-17T14:36:58.060Z,40.97
2022-08-17T14:38:31.244Z,41.41
2022-08-17T14:40:06.815Z,41.32
2022-08-17T14:41:40.937Z,41.68
2022-08-17T14:43:16.535Z,41.87
2022-08-17T14:44:50.625Z,41.95
2022-08-17T14:46:27.691Z,41.93
2022-08-17T14:48:08.028Z,42.05
2022-08-17T14:49:41.171Z,42.14
2022-08-17T14:51:14.955Z,42.26
2022-08-17T14:52:49.078Z,42.38
2022-08-17T14:54:32.952Z,42.53
2022-08-17T14:56:08.217Z,42.59
2022-08-17T14:57:46.103Z,42.85
2022-08-17T14:59:19.654Z,43.10
2022-08-17T15:00:53.257Z,43.21
2022-08-17T15:02:31.151Z,43.20
2022-08-17T15:04:04.280Z,43.28
2022-08-17T15:05:39.052Z,43.39
2022-08-17T15:07:12.485Z,43.34
2022-08-17T15:08:45.420Z,43.44
2022-08-17T15:10:19.068Z,43.47
2022-08-17T15:11:54.496Z,43.56
2022-08-17T15:13:28.336Z,43.77
2022-08-17T15:15:08.248Z,44.09
2022-08-17T15:16:41.837Z,44.42
2022-08-17T15:18:15.984Z,44.42
2022-08-17T15:19:49.413Z,44.75
2022-08-17T15:21:22.863Z,45.05
2022-08-17T15:22:57.893Z,45.18
2022-08-17T15:24:31.394Z,45.38
2022-08-17T15:26:05.031Z,45.36
2022-08-17T15:27:41.503Z,45.72
2022-08-17T15:29:15.316Z,45.51
2022-08-17T15:30:49.195Z,45.90
2022-08-17T15:32:27.705Z,45.97
2022-08-17T15:34:01.167Z,45.96
2022-08-17T15:35:34.439Z,46.14
2022-08-17T15:37:08.062Z,46.41
2022-08-17T15:38:44.519Z,46.44
2022-08-17T15:40:18.267Z,46.62
2022-08-17T15:41:58.030Z,46.52
2022-08-17T15:43:33.149Z,46.94
2022-08-17T15:45:07.759Z,46.85
2022-08-17T15:46:40.686Z,46.94
2022-08-17T15:48:19.057Z,47.23
2022-08-17T15:49:56.645Z,47.42
2022-08-17T15:51:34.371Z,47.49
2022-08-17T15:53:07.812Z,47.69
2022-08-17T15:54:41.055Z,47.68
2022-08-17T15:56:19.161Z,47.87
2022-08-17T15:57:52.678Z,47.89
2022-08-17T15:59:26.321Z,47.88
2022-08-17T16:01:14.312Z,48.25
2022-08-17T16:03:45.549Z,48.48
2022-08-17T16:04:44.451Z,48.52
2022-08-17T16:06:19.970Z,48.55
2022-08-17T16:07:56.356Z,48.79
2022-08-17T16:09:29.840Z,48.92
2022-08-17T16:11:04.284Z,49.05
2022-08-17T16:12:38.641Z,49.18
2022-08-17T16:14:12.154Z,49.29
2022-08-17T16:15:57.288Z,49.55
2022-08-17T16:17:39.682Z,49.75
2022-08-17T16:19:14.750Z,49.74
2022-08-17T16:20:52.354Z,49.82
2022-08-17T16:22:36.977Z,50.12
2022-08-17T16:24:12.853Z,49.94
2022-08-17T16:25:53.101Z,49.90
2022-08-17T16:27:29.937Z,49.88
2022-08-17T16:29:04.926Z,49.96
2022-08-17T16:30:38.838Z,50.10
2022-08-17T16:32:31.909Z,50.35
2022-08-17T16:34:16.753Z,50.43
2022-08-17T16:35:52.035Z,50.31
2022-08-17T16:37:25.787Z,50.47
2022-08-17T16:39:04.501Z,50.75
2022-08-17T16:40:38.003Z,51.06
2022-08-17T16:42:31.600Z,51.39
2022-08-17T16:44:05.038Z,51.88
2022-08-17T16:45:41.125Z,52.29
2022-08-17T16:47:17.926Z,52.57
2022-08-17T16:48:52.683Z,52.95
2022-08-17T16:50:26.010Z,53.08
2022-08-17T16:52:03.798Z,53.14
2022-08-17T16:53:37.778Z,52.78
2022-08-17T16:55:13.478Z,52.58
2022-08-17T16:56:46.806Z,52.96
2022-08-17T16:58:20.582Z,52.52
2022-08-17T16:59:54.044Z,52.75
2022-08-17T17:01:33.541Z,53.05
2022-08-17T17:03:19.955Z,53.19
2022-08-17T17:05:12.227Z,53.26
2022-08-17T17:06:56.190Z,53.10
2022-08-17T17:08:30.820Z,53.48
2022-08-17T17:10:16.461Z,53.95
2022-08-17T17:11:55.484Z,53.39
2022-08-17T17:13:41.712Z,53.64
2022-08-17T17:15:20.092Z,53.87
2022-08-17T17:17:06.479Z,54.29
2022-08-17T17:18:44.461Z,54.07
2022-08-17T17:20:25.189Z,53.12
2022-08-17T17:22:22.523Z,53.31
2022-08-17T17:23:58.621Z,53.49
2022-08-17T17:25:49.667Z,54.39
2022-08-17T17:27:23.341Z,54.20
2022-08-17T17:29:10.426Z,54.85
2022-08-17T17:30:47.138Z,54.38
2022-08-17T17:32:39.819Z,54.31
2022-08-17T17:34:16.732Z,54.39
2022-08-17T17:35:49.963Z,54.26
2022-08-17T17:37:27.970Z,54.24
2022-08-17T17:39:05.510Z,53.17
2022-08-17T17:40:43.961Z,52.75
2022-08-17T17:42:28.826Z,53.17
2022-08-17T17:44:05.530Z,52.80
2022-08-17T17:45:43.220Z,52.57
2022-08-17T17:47:16.805Z,52.79
2022-08-17T17:48:50.147Z,52.28
2022-08-17T17:50:30.475Z,51.60
2022-08-17T17:52:14.254Z,51.96
2022-08-17T17:53:55.062Z,51.46
2022-08-17T17:55:28.882Z,51.60
2022-08-17T17:57:10.582Z,51.06
2022-08-17T17:58:52.687Z,50.68
2022-08-17T18:00:41.252Z,50.59
2022-08-17T18:02:36.637Z,51.11
2022-08-17T18:04:20.699Z,51.14
2022-08-17T18:06:07.442Z,50.45
2022-08-17T18:07:53.251Z,50.67
2022-08-17T18:09:41.374Z,50.61
2022-08-17T18:11:24.427Z,50.84
2022-08-17T18:13:16.684Z,51.19
2022-08-17T18:15:04.132Z,51.33
2022-08-17T18:16:45.500Z,51.30
2022-08-17T18:18:21.058Z,51.36
2022-08-17T18:19:56.183Z,51.15
2022-08-17T18:21:38.101Z,51.16
2022-08-17T18:23:11.997Z,51.14
2022-08-17T18:24:46.921Z,51.25
2022-08-17T18:26:38.070Z,51.21
2022-08-17T18:28:26.301Z,51.39
2022-08-17T18:30:03.443Z,51.15
2022-08-17T18:31:40.150Z,51.15
2022-08-17T18:33:23.137Z,51.13
2022-08-17T18:34:56.452Z,51.07
2022-08-17T18:36:31.558Z,51.18
2022-08-17T18:38:29.686Z,51.40
2022-08-17T18:40:22.064Z,51.47
2022-08-17T18:41:57.518Z,51.59
2022-08-17T18:43:43.849Z,51.63
2022-08-17T18:45:47.333Z,51.94
2022-08-17T18:47:20.463Z,52.05
2022-08-17T18:49:08.113Z,52.03
2022-08-17T18:50:44.402Z,52.00
2022-08-17T18:52:36.879Z,52.17
2022-08-17T18:54:25.465Z,52.21
2022-08-17T18:56:21.351Z,52.39
2022-08-17T18:57:57.512Z,52.35
2022-08-17T18:59:44.537Z,52.43
2022-08-17T19:01:19.100Z,52.37
2022-08-17T19:02:56.305Z,52.44
2022-08-17T19:04:32.774Z,52.58
2022-08-17T19:06:22.817Z,52.29
2022-08-17T19:08:14.327Z,52.69
2022-08-17T19:09:49.692Z,52.53
2022-08-17T19:11:28.641Z,52.47
2022-08-17T19:13:02.153Z,52.70
2022-08-17T19:14:46.257Z,52.70
2022-08-17T19:16:25.359Z,52.85
2022-08-17T19:18:04.487Z,52.94
2022-08-17T19:19:39.099Z,52.75
2022-08-17T19:21:24.089Z,52.76
2022-08-17T19:23:04.763Z,52.76
2022-08-17T19:24:47.526Z,52.78
2022-08-17T19:26:51.160Z,52.93
2022-08-17T19:28:25.602Z,53.09
2022-08-17T19:30:05.537Z,52.93
2022-08-17T19:31:41.779Z,52.83
2022-08-17T19:33:15.376Z,52.90
2022-08-17T19:34:48.886Z,52.99
2022-08-17T19:36:22.317Z,52.92
2022-08-17T19:38:12.905Z,52.86
2022-08-17T19:39:52.909Z,52.69
2022-08-17T19:41:48.701Z,52.38
2022-08-17T19:43:31.396Z,52.46
2022-08-17T19:45:12.216Z,52.30
2022-08-17T19:47:02.812Z,52.20
2022-08-17T19:48:40.470Z,52.06
2022-08-17T19:50:19.271Z,51.88
2022-08-17T19:52:02.673Z,51.62
2022-08-17T19:54:01.789Z,51.71
2022-08-17T19:55:44.264Z,52.03
2022-08-17T19:57:37.291Z,51.92
2022-08-17T19:59:23.454Z,51.86
2022-08-17T20:00:57.085Z,51.85
2022-08-17T20:02:42.309Z,51.91
2022-08-17T20:04:37.871Z,51.56
2022-08-17T20:06:14.447Z,51.66
2022-08-17T20:07:52.265Z,52.01
2022-08-17T20:09:34.636Z,51.74
2022-08-17T20:11:15.550Z,51.74
2022-08-17T20:12:51.677Z,51.59
2022-08-17T20:14:31.712Z,51.96
2022-08-17T20:16:05.914Z,51.97
2022-08-17T20:17:43.963Z,51.94
2022-08-17T20:19:37.257Z,52.02
2022-08-17T20:21:27.003Z,52.05
2022-08-17T20:23:00.303Z,52.15
2022-08-17T20:24:44.269Z,52.00
2022-08-17T20:26:27.940Z,51.95
2022-08-17T20:28:07.388Z,52.05
2022-08-17T20:29:55.799Z,52.18
2022-08-17T20:31:41.268Z,51.97
2022-08-17T20:33:24.484Z,52.00
2022-08-17T20:35:06.206Z,51.91
2022-08-17T20:36:57.633Z,51.91
2022-08-17T20:38:40.798Z,52.27
2022-08-17T20:40:20.814Z,52.25
2022-08-17T20:42:05.820Z,52.23
2022-08-17T20:43:39.355Z,52.30
2022-08-17T20:45:22.074Z,52.46
2022-08-17T20:47:07.349Z,52.16
2022-08-17T20:48:43.855Z,52.29
2022-08-17T20:50:29.269Z,52.29
2022-08-17T20:52:10.272Z,52.41
2022-08-17T20:53:54.332Z,52.70
2022-08-17T20:55:52.025Z,52.69
2022-08-17T20:57:32.456Z,52.92
2022-08-17T20:59:09.170Z,52.88
2022-08-17T21:00:44.146Z,53.05
2022-08-17T21:02:22.642Z,53.32
2022-08-17T21:03:56.498Z,53.22
2022-08-17T21:05:38.241Z,53.31
2022-08-17T21:07:32.899Z,53.16
2022-08-17T21:09:16.119Z,53.28
2022-08-17T21:10:53.379Z,53.11
2022-08-17T21:12:42.113Z,53.31
2022-08-17T21:14:34.551Z,53.33
2022-08-17T21:16:08.536Z,53.47
2022-08-17T21:17:50.109Z,53.54
2022-08-17T21:19:31.146Z,53.64
2022-08-17T21:21:20.614Z,53.70
2022-08-17T21:22:57.216Z,53.82
2022-08-17T21:24:31.714Z,53.92
2022-08-17T21:26:08.023Z,54.13
2022-08-17T21:27:56.862Z,54.29
2022-08-17T21:29:39.059Z,54.46
2022-08-17T21:31:34.509Z,54.56
2022-08-17T21:33:17.267Z,54.53
2022-08-17T21:35:10.566Z,54.54
2022-08-17T21:36:44.834Z,54.66